Atlanta, Nebraska
Current Conditions -  °F | °C
As of 1:35 PM on Monday 22 Dec 2014 (Local Time) from KHDE Reporting Station
Scattered Clouds Scattered Clouds  
Wind Chill: 41°   Ceiling: Unl
Heat Index: 47°   Visibility: 10mi
Dew Point: 30°   Wind: 17mph
Humidity: 51%   Direction: 320°NW
Pressure: 29.49"   Gusts: 29mph
Location:  40.37°N, 99.47°W
Report Text: KHDE 221935Z AUTO 32015G25KT 10SM SCT050 09/M01 A2949 RMK AO2 T00851012
Loading
Personal Weather Stations






























Interactive Weather Map New forecast layout! Learn more

10-Day Weather Forecast

Advertisements
Track Severe Weather on mobile